sensor_id;sensor_type;location;lat;lon;timestamp;pressure;altitude;pressure_sealevel;temperature;humidity
8705;BME280;4389;41.932;25.904;2023-05-11T00:00:46;101045.50;;;6.87;95.46
8705;BME280;4389;41.932;25.904;2023-05-11T00:03:12;101051.31;;;6.78;96.21
8705;BME280;4389;41.932;25.904;2023-05-11T00:05:39;101046.69;;;6.81;95.99
8705;BME280;4389;41.932;25.904;2023-05-11T00:08:06;101053.59;;;6.70;95.99
8705;BME280;4389;41.932;25.904;2023-05-11T00:10:33;101048.84;;;6.62;96.73
8705;BME280;4389;41.932;25.904;2023-05-11T00:13:00;101052.47;;;6.74;96.82
8705;BME280;4389;41.932;25.904;2023-05-11T00:15:28;101050.75;;;6.87;96.20
8705;BME280;4389;41.932;25.904;2023-05-11T00:17:55;101050.34;;;6.93;96.38
8705;BME280;4389;41.932;25.904;2023-05-11T00:20:22;101053.34;;;7.01;95.33
8705;BME280;4389;41.932;25.904;2023-05-11T00:22:49;101053.91;;;6.92;95.19
8705;BME280;4389;41.932;25.904;2023-05-11T00:25:16;101051.72;;;6.72;96.11
8705;BME280;4389;41.932;25.904;2023-05-11T00:27:42;101060.75;;;6.68;96.75
8705;BME280;4389;41.932;25.904;2023-05-11T00:30:11;101056.34;;;6.68;96.93
8705;BME280;4389;41.932;25.904;2023-05-11T00:32:40;101049.84;;;6.74;97.20
8705;BME280;4389;41.932;25.904;2023-05-11T00:35:08;101054.50;;;6.83;96.36
8705;BME280;4389;41.932;25.904;2023-05-11T00:37:36;101052.59;;;6.85;95.31
8705;BME280;4389;41.932;25.904;2023-05-11T00:40:04;101055.34;;;6.83;95.24
8705;BME280;4389;41.932;25.904;2023-05-11T00:42:31;101050.81;;;6.59;94.79
8705;BME280;4389;41.932;25.904;2023-05-11T00:44:58;101054.88;;;6.36;96.47
8705;BME280;4389;41.932;25.904;2023-05-11T00:47:24;101057.41;;;6.38;96.72
8705;BME280;4389;41.932;25.904;2023-05-11T00:49:54;101061.72;;;6.25;97.27
8705;BME280;4389;41.932;25.904;2023-05-11T00:52:21;101065.09;;;6.27;97.79
8705;BME280;4389;41.932;25.904;2023-05-11T00:54:48;101069.97;;;6.33;97.27
8705;BME280;4389;41.932;25.904;2023-05-11T00:57:15;101061.72;;;6.39;97.25
8705;BME280;4389;41.932;25.904;2023-05-11T00:59:42;101062.31;;;6.30;97.12
8705;BME280;4389;41.932;25.904;2023-05-11T01:02:09;101062.47;;;6.41;97.53
8705;BME280;4389;41.932;25.904;2023-05-11T01:04:36;101071.50;;;6.37;97.56
8705;BME280;4389;41.932;25.904;2023-05-11T01:07:11;101057.78;;;6.32;96.54
8705;BME280;4389;41.932;25.904;2023-05-11T01:09:45;101067.34;;;6.47;96.98
8705;BME280;4389;41.932;25.904;2023-05-11T01:12:25;101064.56;;;6.36;96.85
8705;BME280;4389;41.932;25.904;2023-05-11T01:15:00;101072.59;;;6.19;96.86
8705;BME280;4389;41.932;25.904;2023-05-11T01:17:36;101067.44;;;6.31;97.69
8705;BME280;4389;41.932;25.904;2023-05-11T01:20:08;101067.34;;;6.19;96.79
8705;BME280;4389;41.932;25.904;2023-05-11T01:22:47;101055.91;;;6.06;97.82
8705;BME280;4389;41.932;25.904;2023-05-11T01:25:30;101064.34;;;6.11;98.51
8705;BME280;4389;41.932;25.904;2023-05-11T01:28:18;101065.00;;;6.28;97.97
8705;BME280;4389;41.932;25.904;2023-05-11T01:30:50;101066.97;;;6.25;98.30
8705;BME280;4389;41.932;25.904;2023-05-11T01:33:29;101068.66;;;6.26;98.21
8705;BME280;4389;41.932;25.904;2023-05-11T01:36:01;101066.53;;;6.18;98.78
8705;BME280;4389;41.932;25.904;2023-05-11T01:38:32;101066.63;;;6.31;99.00
8705;BME280;4389;41.932;25.904;2023-05-11T01:41:02;101068.59;;;6.13;99.57
8705;BME280;4389;41.932;25.904;2023-05-11T01:43:35;101067.56;;;6.16;98.76
8705;BME280;4389;41.932;25.904;2023-05-11T01:46:05;101073.47;;;6.19;99.67
8705;BME280;4389;41.932;25.904;2023-05-11T01:48:37;101065.09;;;6.13;98.57
8705;BME280;4389;41.932;25.904;2023-05-11T01:51:05;101065.31;;;6.10;99.17
8705;BME280;4389;41.932;25.904;2023-05-11T01:53:35;101065.38;;;6.08;99.31
8705;BME280;4389;41.932;25.904;2023-05-11T01:56:03;101061.34;;;6.03;99.66
8705;BME280;4389;41.932;25.904;2023-05-11T01:58:33;101058.66;;;6.04;98.63
8705;BME280;4389;41.932;25.904;2023-05-11T02:01:03;101048.38;;;5.86;99.04
8705;BME280;4389;41.932;25.904;2023-05-11T02:03:32;101054.56;;;5.85;98.77
8705;BME280;4389;41.932;25.904;2023-05-11T02:06:01;101055.00;;;5.77;98.04
8705;BME280;4389;41.932;25.904;2023-05-11T02:08:30;101060.19;;;5.49;99.25
8705;BME280;4389;41.932;25.904;2023-05-11T02:10:59;101058.63;;;5.61;99.43
8705;BME280;4389;41.932;25.904;2023-05-11T02:13:28;101065.41;;;5.65;99.90
8705;BME280;4389;41.932;25.904;2023-05-11T02:15:56;101067.44;;;5.60;98.91
8705;BME280;4389;41.932;25.904;2023-05-11T02:18:26;101062.56;;;5.54;99.68
8705;BME280;4389;41.932;25.904;2023-05-11T02:20:55;101067.09;;;5.66;99.61
8705;BME280;4389;41.932;25.904;2023-05-11T02:23:22;101068.38;;;5.59;99.41
8705;BME280;4389;41.932;25.904;2023-05-11T02:25:51;101062.38;;;5.57;98.09
8705;BME280;4389;41.932;25.904;2023-05-11T02:28:18;101064.44;;;5.52;98.03
8705;BME280;4389;41.932;25.904;2023-05-11T02:30:46;101059.97;;;5.68;98.56
8705;BME280;4389;41.932;25.904;2023-05-11T02:33:19;101065.78;;;5.73;97.53
8705;BME280;4389;41.932;25.904;2023-05-11T02:35:49;101072.72;;;5.74;97.33
8705;BME280;4389;41.932;25.904;2023-05-11T02:38:17;101066.91;;;5.69;97.75
8705;BME280;4389;41.932;25.904;2023-05-11T02:40:46;101060.88;;;5.53;97.64
8705;BME280;4389;41.932;25.904;2023-05-11T02:43:19;101048.69;;;5.52;97.63
8705;BME280;4389;41.932;25.904;2023-05-11T02:45:49;101052.72;;;5.57;97.41
8705;BME280;4389;41.932;25.904;2023-05-11T02:48:20;101053.75;;;5.55;98.33
8705;BME280;4389;41.932;25.904;2023-05-11T02:50:51;101073.06;;;5.54;97.45
8705;BME280;4389;41.932;25.904;2023-05-11T02:53:21;101055.63;;;5.53;97.91
8705;BME280;4389;41.932;25.904;2023-05-11T02:55:52;101057.13;;;5.57;98.79
8705;BME280;4389;41.932;25.904;2023-05-11T02:58:20;101064.59;;;5.49;98.04
8705;BME280;4389;41.932;25.904;2023-05-11T03:00:48;101061.41;;;5.44;99.60
8705;BME280;4389;41.932;25.904;2023-05-11T03:03:15;101061.97;;;5.49;99.00
8705;BME280;4389;41.932;25.904;2023-05-11T03:05:42;101066.66;;;5.44;98.90
8705;BME280;4389;41.932;25.904;2023-05-11T03:08:10;101066.66;;;5.44;99.18
8705;BME280;4389;41.932;25.904;2023-05-11T03:10:37;101069.69;;;5.52;98.10
8705;BME280;4389;41.932;25.904;2023-05-11T03:13:05;101070.81;;;5.62;97.74
8705;BME280;4389;41.932;25.904;2023-05-11T03:15:33;101080.41;;;5.77;97.45
8705;BME280;4389;41.932;25.904;2023-05-11T03:18:02;101073.44;;;5.91;97.67
8705;BME280;4389;41.932;25.904;2023-05-11T03:20:29;101075.81;;;6.24;96.06
8705;BME280;4389;41.932;25.904;2023-05-11T03:22:58;101082.78;;;6.79;94.27
8705;BME280;4389;41.932;25.904;2023-05-11T03:25:27;101081.94;;;7.71;91.43
8705;BME280;4389;41.932;25.904;2023-05-11T03:27:56;101089.38;;;8.28;86.43
8705;BME280;4389;41.932;25.904;2023-05-11T03:30:25;101088.19;;;8.93;83.58
8705;BME280;4389;41.932;25.904;2023-05-11T03:32:53;101099.13;;;9.35;81.22
8705;BME280;4389;41.932;25.904;2023-05-11T03:35:21;101094.97;;;9.78;79.84
8705;BME280;4389;41.932;25.904;2023-05-11T03:37:51;101095.81;;;10.24;78.01
8705;BME280;4389;41.932;25.904;2023-05-11T03:40:20;101104.09;;;10.86;74.01
8705;BME280;4389;41.932;25.904;2023-05-11T03:42:52;101101.63;;;11.58;71.50
8705;BME280;4389;41.932;25.904;2023-05-11T03:45:20;101098.19;;;12.19;69.36
8705;BME280;4389;41.932;25.904;2023-05-11T03:47:49;101112.59;;;12.26;68.03
8705;BME280;4389;41.932;25.904;2023-05-11T03:50:18;101110.31;;;12.42;67.65
8705;BME280;4389;41.932;25.904;2023-05-11T03:52:46;101106.16;;;13.28;65.27
8705;BME280;4389;41.932;25.904;2023-05-11T03:55:13;101114.72;;;13.98;62.49
8705;BME280;4389;41.932;25.904;2023-05-11T03:57:40;101121.44;;;14.67;60.46
8705;BME280;4389;41.932;25.904;2023-05-11T04:00:09;101118.00;;;14.84;58.25
8705;BME280;4389;41.932;25.904;2023-05-11T04:02:36;101110.84;;;14.48;59.57
8705;BME280;4389;41.932;25.904;2023-05-11T04:05:06;101108.09;;;14.21;60.95
8705;BME280;4389;41.932;25.904;2023-05-11T04:07:33;101110.44;;;14.33;60.59
8705;BME280;4389;41.932;25.904;2023-05-11T04:10:00;101118.16;;;14.46;60.32
8705;BME280;4389;41.932;25.904;2023-05-11T04:12:27;101118.03;;;14.74;59.82
8705;BME280;4389;41.932;25.904;2023-05-11T04:14:54;101122.41;;;14.93;59.99
8705;BME280;4389;41.932;25.904;2023-05-11T04:17:22;101122.41;;;15.47;57.22
8705;BME280;4389;41.932;25.904;2023-05-11T04:19:49;101121.09;;;15.51;57.42
8705;BME280;4389;41.932;25.904;2023-05-11T04:22:16;101126.25;;;15.62;56.57
8705;BME280;4389;41.932;25.904;2023-05-11T04:24:43;101115.53;;;15.97;56.30
8705;BME280;4389;41.932;25.904;2023-05-11T04:27:10;101116.84;;;15.93;55.85
8705;BME280;4389;41.932;25.904;2023-05-11T04:29:36;101122.81;;;15.25;58.39
8705;BME280;4389;41.932;25.904;2023-05-11T04:32:03;101129.47;;;14.84;60.25
8705;BME280;4389;41.932;25.904;2023-05-11T04:34:32;101133.69;;;15.41;59.42
8705;BME280;4389;41.932;25.904;2023-05-11T04:36:59;101136.59;;;15.65;58.82
8705;BME280;4389;41.932;25.904;2023-05-11T04:39:31;101127.59;;;16.44;55.69
8705;BME280;4389;41.932;25.904;2023-05-11T04:41:58;101133.94;;;17.43;53.30
8705;BME280;4389;41.932;25.904;2023-05-11T04:44:25;101130.50;;;18.31;50.78
8705;BME280;4389;41.932;25.904;2023-05-11T04:46:53;101127.78;;;18.47;50.11
8705;BME280;4389;41.932;25.904;2023-05-11T04:49:20;101134.16;;;17.74;51.44
8705;BME280;4389;41.932;25.904;2023-05-11T04:51:48;101129.41;;;16.18;56.41
8705;BME280;4389;41.932;25.904;2023-05-11T04:54:15;101125.88;;;14.76;62.55
8705;BME280;4389;41.932;25.904;2023-05-11T04:56:42;101124.38;;;13.61;68.26
8705;BME280;4389;41.932;25.904;2023-05-11T04:59:09;101122.59;;;13.03;72.65
8705;BME280;4389;41.932;25.904;2023-05-11T05:01:36;101115.88;;;12.39;75.86
8705;BME280;4389;41.932;25.904;2023-05-11T05:04:02;101121.22;;;12.19;77.77
8705;BME280;4389;41.932;25.904;2023-05-11T05:06:29;101119.53;;;11.97;79.00
8705;BME280;4389;41.932;25.904;2023-05-11T05:08:58;101116.69;;;12.10;78.90
8705;BME280;4389;41.932;25.904;2023-05-11T05:11:25;101114.34;;;12.16;79.04
8705;BME280;4389;41.932;25.904;2023-05-11T05:13:53;101116.44;;;11.92;80.55
8705;BME280;4389;41.932;25.904;2023-05-11T05:16:20;101108.97;;;11.66;80.98
8705;BME280;4389;41.932;25.904;2023-05-11T05:18:46;101107.09;;;11.77;82.74
8705;BME280;4389;41.932;25.904;2023-05-11T05:21:13;101104.00;;;11.72;83.04
8705;BME280;4389;41.932;25.904;2023-05-11T05:23:40;101110.97;;;11.73;84.43
8705;BME280;4389;41.932;25.904;2023-05-11T05:26:08;101107.41;;;11.84;84.61
8705;BME280;4389;41.932;25.904;2023-05-11T05:28:36;101113.00;;;12.01;83.78
8705;BME280;4389;41.932;25.904;2023-05-11T05:31:03;101110.09;;;12.04;84.27
8705;BME280;4389;41.932;25.904;2023-05-11T05:33:30;101107.47;;;12.34;83.02
8705;BME280;4389;41.932;25.904;2023-05-11T05:35:56;101106.41;;;12.46;82.80
8705;BME280;4389;41.932;25.904;2023-05-11T05:38:23;101108.19;;;12.36;82.13
8705;BME280;4389;41.932;25.904;2023-05-11T05:40:50;101101.84;;;12.28;83.19
8705;BME280;4389;41.932;25.904;2023-05-11T05:43:18;101116.03;;;12.17;84.47
8705;BME280;4389;41.932;25.904;2023-05-11T05:45:45;101111.63;;;12.27;83.56
8705;BME280;4389;41.932;25.904;2023-05-11T05:48:12;101100.75;;;12.30;83.41
8705;BME280;4389;41.932;25.904;2023-05-11T05:50:39;101108.88;;;12.38;84.59
8705;BME280;4389;41.932;25.904;2023-05-11T05:53:05;101109.72;;;12.39;83.68
8705;BME280;4389;41.932;25.904;2023-05-11T05:55:32;101108.09;;;12.47;84.87
8705;BME280;4389;41.932;25.904;2023-05-11T05:57:59;101107.03;;;12.59;84.95
8705;BME280;4389;41.932;25.904;2023-05-11T06:00:27;101107.34;;;12.66;83.77
8705;BME280;4389;41.932;25.904;2023-05-11T06:02:54;101099.03;;;12.89;82.52
8705;BME280;4389;41.932;25.904;2023-05-11T06:05:21;101105.41;;;12.68;82.07
8705;BME280;4389;41.932;25.904;2023-05-11T06:07:48;101111.97;;;13.03;80.75
8705;BME280;4389;41.932;25.904;2023-05-11T06:10:15;101117.00;;;12.97;80.14
8705;BME280;4389;41.932;25.904;2023-05-11T06:12:42;101113.28;;;12.88;80.09
8705;BME280;4389;41.932;25.904;2023-05-11T06:15:09;101113.69;;;13.23;77.89
8705;BME280;4389;41.932;25.904;2023-05-11T06:17:37;101123.25;;;13.54;76.78
8705;BME280;4389;41.932;25.904;2023-05-11T06:20:05;101123.22;;;13.26;76.87
8705;BME280;4389;41.932;25.904;2023-05-11T06:22:33;101112.88;;;13.42;77.86
8705;BME280;4389;41.932;25.904;2023-05-11T06:25:00;101109.25;;;13.62;77.15
8705;BME280;4389;41.932;25.904;2023-05-11T06:27:27;101113.03;;;13.78;77.01
8705;BME280;4389;41.932;25.904;2023-05-11T06:29:54;101110.63;;;14.13;76.49
8705;BME280;4389;41.932;25.904;2023-05-11T06:32:21;101111.16;;;14.16;76.03
8705;BME280;4389;41.932;25.904;2023-05-11T06:34:49;101108.66;;;14.34;73.85
8705;BME280;4389;41.932;25.904;2023-05-11T06:37:16;101107.69;;;14.71;72.52
8705;BME280;4389;41.932;25.904;2023-05-11T06:39:45;101111.13;;;15.08;70.10
8705;BME280;4389;41.932;25.904;2023-05-11T06:42:12;101119.16;;;15.26;69.52
8705;BME280;4389;41.932;25.904;2023-05-11T06:44:39;101115.56;;;15.62;69.14
8705;BME280;4389;41.932;25.904;2023-05-11T06:47:07;101108.56;;;15.61;69.53
8705;BME280;4389;41.932;25.904;2023-05-11T06:49:34;101109.63;;;15.68;67.80
8705;BME280;4389;41.932;25.904;2023-05-11T06:52:02;101115.25;;;15.65;67.83
8705;BME280;4389;41.932;25.904;2023-05-11T06:54:29;101118.09;;;15.63;67.60
8705;BME280;4389;41.932;25.904;2023-05-11T06:56:56;101111.81;;;15.55;66.77
8705;BME280;4389;41.932;25.904;2023-05-11T06:59:23;101115.84;;;15.59;67.14
8705;BME280;4389;41.932;25.904;2023-05-11T07:01:50;101101.81;;;15.92;63.42
8705;BME280;4389;41.932;25.904;2023-05-11T07:04:17;101096.91;;;16.48;61.91
8705;BME280;4389;41.932;25.904;2023-05-11T07:06:44;101102.66;;;16.61;61.98
8705;BME280;4389;41.932;25.904;2023-05-11T07:09:12;101095.59;;;16.09;62.57
8705;BME280;4389;41.932;25.904;2023-05-11T07:11:39;101104.97;;;15.52;63.33
8705;BME280;4389;41.932;25.904;2023-05-11T07:14:06;101106.34;;;15.74;64.30
8705;BME280;4389;41.932;25.904;2023-05-11T07:16:36;101103.81;;;15.90;62.47
8705;BME280;4389;41.932;25.904;2023-05-11T07:19:03;101109.25;;;16.06;62.64
8705;BME280;4389;41.932;25.904;2023-05-11T07:21:30;101107.69;;;16.72;59.92
8705;BME280;4389;41.932;25.904;2023-05-11T07:23:57;101099.63;;;16.97;58.41
8705;BME280;4389;41.932;25.904;2023-05-11T07:26:26;101111.00;;;17.49;56.04
8705;BME280;4389;41.932;25.904;2023-05-11T07:28:52;101098.19;;;17.76;55.33
8705;BME280;4389;41.932;25.904;2023-05-11T07:31:20;101105.00;;;18.27;53.62
8705;BME280;4389;41.932;25.904;2023-05-11T07:33:46;101110.34;;;18.59;51.30
8705;BME280;4389;41.932;25.904;2023-05-11T07:36:13;101102.69;;;18.16;52.25
8705;BME280;4389;41.932;25.904;2023-05-11T07:38:40;101103.19;;;17.87;54.59
8705;BME280;4389;41.932;25.904;2023-05-11T07:41:07;101103.69;;;17.75;53.53
8705;BME280;4389;41.932;25.904;2023-05-11T07:43:35;101092.97;;;17.67;53.88
8705;BME280;4389;41.932;25.904;2023-05-11T07:46:02;101094.00;;;17.66;54.09
8705;BME280;4389;41.932;25.904;2023-05-11T07:48:29;101097.16;;;18.01;51.92
8705;BME280;4389;41.932;25.904;2023-05-11T07:50:56;101089.28;;;18.40;51.90
8705;BME280;4389;41.932;25.904;2023-05-11T07:53:22;101090.53;;;18.68;51.40
8705;BME280;4389;41.932;25.904;2023-05-11T07:55:49;101097.53;;;18.77;48.29
8705;BME280;4389;41.932;25.904;2023-05-11T07:58:16;101092.53;;;18.74;48.30
8705;BME280;4389;41.932;25.904;2023-05-11T08:00:44;101090.56;;;18.60;48.25
8705;BME280;4389;41.932;25.904;2023-05-11T08:03:11;101091.44;;;18.44;49.25
8705;BME280;4389;41.932;25.904;2023-05-11T08:05:38;101086.50;;;18.64;49.58
8705;BME280;4389;41.932;25.904;2023-05-11T08:08:05;101089.44;;;18.84;49.11
8705;BME280;4389;41.932;25.904;2023-05-11T08:10:32;101089.91;;;18.50;48.56
8705;BME280;4389;41.932;25.904;2023-05-11T08:13:00;101083.25;;;18.14;49.35
8705;BME280;4389;41.932;25.904;2023-05-11T08:15:27;101075.09;;;17.83;50.94
8705;BME280;4389;41.932;25.904;2023-05-11T08:17:55;101085.97;;;17.82;50.55
8705;BME280;4389;41.932;25.904;2023-05-11T08:20:23;101079.91;;;17.48;52.18
8705;BME280;4389;41.932;25.904;2023-05-11T08:22:49;101075.59;;;17.87;50.93
8705;BME280;4389;41.932;25.904;2023-05-11T08:25:16;101075.56;;;17.55;51.13
8705;BME280;4389;41.932;25.904;2023-05-11T08:27:43;101078.25;;;17.95;50.92
8705;BME280;4389;41.932;25.904;2023-05-11T08:30:11;101073.19;;;18.08;49.33
8705;BME280;4389;41.932;25.904;2023-05-11T08:32:38;101075.06;;;17.99;49.75
8705;BME280;4389;41.932;25.904;2023-05-11T08:35:07;101074.88;;;18.25;50.15
8705;BME280;4389;41.932;25.904;2023-05-11T08:37:34;101076.25;;;17.81;49.63
8705;BME280;4389;41.932;25.904;2023-05-11T08:40:00;101073.75;;;17.63;50.74
8705;BME280;4389;41.932;25.904;2023-05-11T08:42:32;101068.88;;;17.99;50.12
8705;BME280;4389;41.932;25.904;2023-05-11T08:45:00;101064.81;;;18.19;49.79
8705;BME280;4389;41.932;25.904;2023-05-11T08:47:28;101063.78;;;18.28;49.96
8705;BME280;4389;41.932;25.904;2023-05-11T08:49:55;101066.72;;;18.65;48.36
8705;BME280;4389;41.932;25.904;2023-05-11T08:52:24;101056.66;;;18.12;48.91
8705;BME280;4389;41.932;25.904;2023-05-11T08:54:52;101052.78;;;18.31;48.86
8705;BME280;4389;41.932;25.904;2023-05-11T08:57:19;101047.75;;;18.20;48.43
8705;BME280;4389;41.932;25.904;2023-05-11T08:59:47;101042.00;;;18.47;49.11
8705;BME280;4389;41.932;25.904;2023-05-11T09:02:17;101046.09;;;18.11;49.54
8705;BME280;4389;41.932;25.904;2023-05-11T09:04:46;101032.03;;;17.93;52.07
8705;BME280;4389;41.932;25.904;2023-05-11T09:07:15;101035.41;;;17.79;51.08
8705;BME280;4389;41.932;25.904;2023-05-11T09:09:44;101036.38;;;17.94;51.25
8705;BME280;4389;41.932;25.904;2023-05-11T09:12:11;101035.63;;;18.48;51.20
8705;BME280;4389;41.932;25.904;2023-05-11T09:14:38;101028.19;;;18.74;50.17
8705;BME280;4389;41.932;25.904;2023-05-11T09:17:05;101044.59;;;18.71;49.68
8705;BME280;4389;41.932;25.904;2023-05-11T09:19:32;101033.25;;;18.61;50.82
8705;BME280;4389;41.932;25.904;2023-05-11T09:21:59;101029.91;;;18.59;49.41
8705;BME280;4389;41.932;25.904;2023-05-11T09:24:26;101035.69;;;18.32;50.29
8705;BME280;4389;41.932;25.904;2023-05-11T09:27:07;101029.06;;;17.96;50.89
8705;BME280;4389;41.932;25.904;2023-05-11T09:29:34;101028.34;;;18.10;52.17
8705;BME280;4389;41.932;25.904;2023-05-11T09:32:01;101024.63;;;18.35;50.67
8705;BME280;4389;41.932;25.904;2023-05-11T09:34:28;101017.78;;;18.71;50.34
8705;BME280;4389;41.932;25.904;2023-05-11T09:36:55;101028.34;;;19.02;48.64
8705;BME280;4389;41.932;25.904;2023-05-11T09:39:29;101023.63;;;19.04;47.77
8705;BME280;4389;41.932;25.904;2023-05-11T09:42:14;101020.72;;;18.83;47.18
8705;BME280;4389;41.932;25.904;2023-05-11T09:44:41;101011.25;;;19.03;46.53
8705;BME280;4389;41.932;25.904;2023-05-11T09:47:13;101008.09;;;19.67;46.16
8705;BME280;4389;41.932;25.904;2023-05-11T09:49:40;101005.13;;;19.62;45.95
8705;BME280;4389;41.932;25.904;2023-05-11T09:52:09;101003.19;;;19.34;46.77
8705;BME280;4389;41.932;25.904;2023-05-11T09:54:41;101005.38;;;19.30;45.75
8705;BME280;4389;41.932;25.904;2023-05-11T09:57:32;101006.69;;;19.34;45.92
8705;BME280;4389;41.932;25.904;2023-05-11T09:59:59;101004.09;;;19.63;45.20
8705;BME280;4389;41.932;25.904;2023-05-11T10:02:27;100999.69;;;20.36;43.95
8705;BME280;4389;41.932;25.904;2023-05-11T10:04:56;100994.47;;;20.78;42.91
8705;BME280;4389;41.932;25.904;2023-05-11T10:07:24;101000.44;;;21.09;42.59
8705;BME280;4389;41.932;25.904;2023-05-11T10:09:52;100995.97;;;21.37;40.82
8705;BME280;4389;41.932;25.904;2023-05-11T10:12:21;100987.56;;;20.90;42.20
8705;BME280;4389;41.932;25.904;2023-05-11T10:14:54;100985.16;;;20.95;41.99
8705;BME280;4389;41.932;25.904;2023-05-11T10:17:21;100987.06;;;20.51;41.84
8705;BME280;4389;41.932;25.904;2023-05-11T10:19:48;100984.13;;;20.17;43.24
8705;BME280;4389;41.932;25.904;2023-05-11T10:22:15;100976.91;;;20.18;42.84
8705;BME280;4389;41.932;25.904;2023-05-11T10:24:43;100983.38;;;20.52;43.02
8705;BME280;4389;41.932;25.904;2023-05-11T10:27:10;100981.66;;;20.66;42.90
8705;BME280;4389;41.932;25.904;2023-05-11T10:29:38;100969.22;;;20.79;41.83
8705;BME280;4389;41.932;25.904;2023-05-11T10:32:06;100971.91;;;20.29;42.78
8705;BME280;4389;41.932;25.904;2023-05-11T10:34:33;100966.47;;;20.58;42.36
8705;BME280;4389;41.932;25.904;2023-05-11T10:37:01;100969.16;;;21.08;41.31
8705;BME280;4389;41.932;25.904;2023-05-11T10:39:28;100976.19;;;21.09;41.59
8705;BME280;4389;41.932;25.904;2023-05-11T10:42:06;100969.53;;;21.05;41.58
8705;BME280;4389;41.932;25.904;2023-05-11T10:44:52;100969.72;;;21.04;41.17
8705;BME280;4389;41.932;25.904;2023-05-11T10:47:51;100962.72;;;20.88;41.82
8705;BME280;4389;41.932;25.904;2023-05-11T10:50:46;100960.06;;;21.58;40.71
8705;BME280;4389;41.932;25.904;2023-05-11T10:53:32;100950.53;;;21.55;39.79
8705;BME280;4389;41.932;25.904;2023-05-11T10:56:29;100951.03;;;21.93;39.88
8705;BME280;4389;41.932;25.904;2023-05-11T11:01:56;100942.31;;;21.63;39.52
8705;BME280;4389;41.932;25.904;2023-05-11T11:04:40;100938.38;;;21.17;40.96
8705;BME280;4389;41.932;25.904;2023-05-11T11:07:08;100940.47;;;21.43;41.85
8705;BME280;4389;41.932;25.904;2023-05-11T11:09:54;100945.16;;;21.13;40.24
8705;BME280;4389;41.932;25.904;2023-05-11T11:12:22;100945.41;;;21.39;40.15
8705;BME280;4389;41.932;25.904;2023-05-11T11:14:56;100933.22;;;20.80;39.11
8705;BME280;4389;41.932;25.904;2023-05-11T11:17:26;100940.28;;;20.31;40.01
8705;BME280;4389;41.932;25.904;2023-05-11T11:19:57;100941.47;;;20.43;41.03
8705;BME280;4389;41.932;25.904;2023-05-11T11:22:49;100929.88;;;20.78;40.24
8705;BME280;4389;41.932;25.904;2023-05-11T11:25:50;100933.50;;;21.27;38.60
8705;BME280;4389;41.932;25.904;2023-05-11T11:28:18;100932.06;;;21.73;37.13
8705;BME280;4389;41.932;25.904;2023-05-11T11:30:45;100921.47;;;21.99;36.92
8705;BME280;4389;41.932;25.904;2023-05-11T11:33:31;100926.69;;;22.07;34.55
8705;BME280;4389;41.932;25.904;2023-05-11T11:36:03;100923.28;;;21.92;34.81
8705;BME280;4389;41.932;25.904;2023-05-11T11:38:30;100925.78;;;21.66;35.29
8705;BME280;4389;41.932;25.904;2023-05-11T11:40:58;100920.41;;;21.66;36.30
8705;BME280;4389;41.932;25.904;2023-05-11T11:43:27;100915.19;;;21.16;39.18
8705;BME280;4389;41.932;25.904;2023-05-11T11:45:55;100910.44;;;20.62;39.46
8705;BME280;4389;41.932;25.904;2023-05-11T11:48:28;100910.75;;;20.52;40.08
8705;BME280;4389;41.932;25.904;2023-05-11T11:51:05;100915.78;;;20.41;40.56
8705;BME280;4389;41.932;25.904;2023-05-11T11:54:02;100917.06;;;20.45;41.87
8705;BME280;4389;41.932;25.904;2023-05-11T11:56:38;100908.47;;;20.70;40.66
8705;BME280;4389;41.932;25.904;2023-05-11T11:59:05;100909.63;;;20.82;40.35
8705;BME280;4389;41.932;25.904;2023-05-11T12:01:36;100899.44;;;20.92;41.36
8705;BME280;4389;41.932;25.904;2023-05-11T12:07:12;100889.03;;;20.89;39.82
8705;BME280;4389;41.932;25.904;2023-05-11T12:09:40;100890.06;;;21.09;39.24
8705;BME280;4389;41.932;25.904;2023-05-11T12:12:11;100874.63;;;20.97;38.97
8705;BME280;4389;41.932;25.904;2023-05-11T12:14:38;100876.06;;;21.20;39.52
8705;BME280;4389;41.932;25.904;2023-05-11T12:17:09;100888.22;;;20.74;40.15
8705;BME280;4389;41.932;25.904;2023-05-11T12:19:43;100873.72;;;20.54;41.77
8705;BME280;4389;41.932;25.904;2023-05-11T12:22:11;100874.13;;;20.51;40.53
8705;BME280;4389;41.932;25.904;2023-05-11T12:24:41;100872.59;;;20.63;40.83
8705;BME280;4389;41.932;25.904;2023-05-11T12:27:08;100858.91;;;20.58;40.63
8705;BME280;4389;41.932;25.904;2023-05-11T12:29:35;100865.63;;;20.69;39.23
8705;BME280;4389;41.932;25.904;2023-05-11T12:32:03;100872.97;;;20.60;39.76
8705;BME280;4389;41.932;25.904;2023-05-11T12:34:30;100875.19;;;20.71;39.41
8705;BME280;4389;41.932;25.904;2023-05-11T12:36:58;100869.91;;;20.84;40.08
8705;BME280;4389;41.932;25.904;2023-05-11T12:39:27;100865.84;;;20.88;38.73
8705;BME280;4389;41.932;25.904;2023-05-11T12:41:55;100858.22;;;20.92;39.21
8705;BME280;4389;41.932;25.904;2023-05-11T12:44:23;100860.44;;;20.67;38.91
8705;BME280;4389;41.932;25.904;2023-05-11T12:46:50;100859.28;;;20.76;39.17
8705;BME280;4389;41.932;25.904;2023-05-11T12:49:18;100848.94;;;20.94;38.55
8705;BME280;4389;41.932;25.904;2023-05-11T12:51:50;100847.22;;;21.35;37.71
8705;BME280;4389;41.932;25.904;2023-05-11T12:54:29;100845.09;;;21.92;36.54
8705;BME280;4389;41.932;25.904;2023-05-11T12:56:57;100836.81;;;21.94;36.02
8705;BME280;4389;41.932;25.904;2023-05-11T12:59:29;100837.91;;;22.06;35.98
8705;BME280;4389;41.932;25.904;2023-05-11T13:02:10;100836.63;;;22.42;35.80
8705;BME280;4389;41.932;25.904;2023-05-11T13:04:41;100835.28;;;22.25;35.66
8705;BME280;4389;41.932;25.904;2023-05-11T13:07:08;100837.22;;;21.97;37.01
8705;BME280;4389;41.932;25.904;2023-05-11T13:09:37;100837.75;;;21.73;37.55
8705;BME280;4389;41.932;25.904;2023-05-11T13:12:09;100841.59;;;21.98;36.97
8705;BME280;4389;41.932;25.904;2023-05-11T13:14:36;100831.88;;;22.04;36.79
8705;BME280;4389;41.932;25.904;2023-05-11T13:17:03;100829.72;;;21.86;36.97
8705;BME280;4389;41.932;25.904;2023-05-11T13:19:30;100824.56;;;21.57;39.31